Time;durP1;ratioP1;P1;durP2;ratioP2;P2;SDS_P1;SDS_P2;PMS_P1;PMS_P2;Temp;Humidity;BMP_temperature;BMP_pressure;BME280_temperature;BME280_humidity;BME280_pressure;Samples;Min_cycle;Max_cycle;Signal;HPM_P1;HPM_P2
2021/06/03 00:00:28;;;;;;;2.08;1.58;;;;;;;19.29;50.96;100708.31;5036702;28;20064;-80
2021/06/03 00:02:53;;;;;;;1.85;1.40;;;;;;;19.17;52.12;100720.69;5053360;28;20052;-79
2021/06/03 00:05:22;;;;;;;3.17;1.70;;;;;;;19.13;48.77;100735.53;5053626;28;20033;-80
2021/06/03 00:07:47;;;;;;;3.00;1.80;;;;;;;19.07;53.06;100736.34;5055210;28;20033;-80
2021/06/03 00:10:13;;;;;;;4.10;1.80;;;;;;;19.02;51.17;100747.66;5053584;28;20528;-79
2021/06/03 00:12:39;;;;;;;2.92;1.65;;;;;;;19.04;51.32;100747.44;5055665;28;20398;-79
2021/06/03 00:15:08;;;;;;;2.00;1.50;;;;;;;19.06;51.69;100750.75;5036227;28;20089;-80
2021/06/03 00:17:34;;;;;;;3.15;1.60;;;;;;;19.12;52.18;100746.47;5037742;28;20362;-80
2021/06/03 00:19:59;;;;;;;3.65;1.73;;;;;;;19.07;53.38;100747.88;5055327;28;20622;-79
2021/06/03 00:22:25;;;;;;;3.58;1.70;;;;;;;19.02;54.68;100747.66;5054141;28;20403;-79
2021/06/03 00:24:50;;;;;;;3.25;1.80;;;;;;;18.99;54.01;100745.38;5055455;28;20029;-79
2021/06/03 00:27:16;;;;;;;3.55;1.60;;;;;;;18.96;53.10;100750.31;5055588;28;20036;-79
2021/06/03 00:29:41;;;;;;;2.17;1.40;;;;;;;18.94;53.41;100747.84;5054956;28;20037;-79
2021/06/03 00:32:08;;;;;;;1.90;1.30;;;;;;;18.90;54.29;100751.94;5054165;28;20041;-79
2021/06/03 00:34:33;;;;;;;2.70;1.80;;;;;;;18.84;55.45;100745.53;5035447;28;20533;-79
2021/06/03 00:37:00;;;;;;;2.80;1.70;;;;;;;18.78;55.49;100735.66;5055366;28;20029;-79
2021/06/03 00:39:25;;;;;;;2.03;1.50;;;;;;;18.81;54.46;100735.22;5055391;28;20029;-79
2021/06/03 00:41:51;;;;;;;2.60;2.00;;;;;;;18.83;53.17;100732.34;5055223;28;20037;-79
2021/06/03 00:44:16;;;;;;;3.35;1.90;;;;;;;18.78;53.46;100729.44;5036195;28;20506;-79
2021/06/03 00:46:41;;;;;;;2.47;1.80;;;;;;;18.75;53.15;100730.63;5052625;28;20045;-79
2021/06/03 00:49:07;;;;;;;2.67;1.50;;;;;;;18.75;53.05;100727.13;5053705;28;20048;-78
2021/06/03 00:51:32;;;;;;;3.10;2.03;;;;;;;18.72;53.15;100728.38;5054581;28;20056;-79
2021/06/03 00:53:57;;;;;;;3.42;1.42;;;;;;;18.65;53.84;100735.53;5037142;28;20035;-79
2021/06/03 00:56:23;;;;;;;2.35;1.60;;;;;;;18.52;57.20;100733.66;5054212;28;20061;-79
2021/06/03 00:58:48;;;;;;;1.75;1.33;;;;;;;18.41;56.73;100727.00;5054437;28;20037;-79
2021/06/03 01:01:14;;;;;;;1.98;1.40;;;;;;;18.27;58.48;100735.16;5054241;28;20449;-79
2021/06/03 01:03:39;;;;;;;2.53;1.73;;;;;;;18.11;57.37;100741.63;5054823;28;20098;-79
2021/06/03 01:06:08;;;;;;;2.08;1.55;;;;;;;18.00;57.54;100738.50;5053692;28;20064;-78
2021/06/03 01:08:48;;;;;;;2.42;1.40;;;;;;;17.90;58.98;100740.69;5052549;28;20076;-79
2021/06/03 01:11:21;;;;;;;2.53;1.58;;;;;;;17.84;57.43;100741.44;5051763;28;20045;-79
2021/06/03 01:13:56;;;;;;;1.58;1.38;;;;;;;17.86;56.95;100739.41;5050260;28;20033;-79
2021/06/03 01:16:23;;;;;;;2.90;1.60;;;;;;;17.81;59.22;100741.84;5037985;28;20041;-79
2021/06/03 01:18:50;;;;;;;2.20;1.40;;;;;;;17.89;55.41;100747.03;5060113;28;20079;-79
2021/06/03 01:21:21;;;;;;;2.47;1.42;;;;;;;17.89;56.37;100757.75;5061896;28;20033;-78
2021/06/03 01:24:04;;;;;;;2.55;1.52;;;;;;;17.94;56.33;100751.81;5062475;28;20372;-78
2021/06/03 01:26:30;;;;;;;1.98;1.50;;;;;;;17.98;55.58;100751.22;5061929;28;20036;-78
2021/06/03 01:28:56;;;;;;;2.22;1.40;;;;;;;18.11;54.51;100753.16;5063879;28;20041;-79
2021/06/03 01:31:22;;;;;;;1.67;1.25;;;;;;;18.10;55.51;100754.19;5064877;28;20029;-79
2021/06/03 01:33:48;;;;;;;1.73;1.20;;;;;;;18.15;55.36;100753.63;5036157;28;20029;-78
2021/06/03 01:36:15;;;;;;;2.70;1.50;;;;;;;18.20;54.41;100753.84;5059616;28;20048;-79
2021/06/03 01:38:42;;;;;;;1.70;1.35;;;;;;;18.17;55.79;100755.06;5064955;28;20093;-78
2021/06/03 01:41:10;;;;;;;2.08;1.30;;;;;;;18.20;55.01;100748.50;5060328;28;20037;-78
2021/06/03 01:43:37;;;;;;;2.10;1.60;;;;;;;18.22;53.67;100755.31;5059444;28;20124;-78
2021/06/03 01:46:03;;;;;;;2.92;1.70;;;;;;;18.22;54.13;100757.97;5041058;28;20039;-78
2021/06/03 01:48:29;;;;;;;1.95;1.38;;;;;;;18.22;54.49;100759.84;5028913;28;20045;-79
2021/06/03 01:50:58;;;;;;;2.65;1.45;;;;;;;18.23;53.88;100758.78;5058177;28;20063;-78
2021/06/03 01:53:27;;;;;;;2.88;1.70;;;;;;;18.27;54.10;100757.38;5058608;28;20029;-78
2021/06/03 01:55:54;;;;;;;2.03;1.42;;;;;;;18.20;54.53;100762.69;5058194;28;20036;-78
2021/06/03 01:58:21;;;;;;;2.15;1.40;;;;;;;18.27;53.76;100759.25;5039301;28;20082;-78
2021/06/03 02:00:48;;;;;;;1.92;1.45;;;;;;;18.23;54.10;100764.16;5058770;28;20036;-78
2021/06/03 02:03:13;;;;;;;1.77;1.33;;;;;;;18.28;54.13;100760.88;5040126;28;20037;-78
2021/06/03 02:05:38;;;;;;;2.95;1.77;;;;;;;18.24;53.87;100760.47;5054481;28;20040;-78
2021/06/03 02:08:04;;;;;;;1.38;1.08;;;;;;;18.21;55.77;100766.19;5032895;28;20525;-78
2021/06/03 02:10:29;;;;;;;2.17;1.30;;;;;;;18.26;54.39;100774.50;5057301;28;20049;-78
2021/06/03 02:13:09;;;;;;;2.25;1.40;;;;;;;18.31;53.36;100773.91;5056458;28;20029;-79
2021/06/03 02:15:37;;;;;;;1.80;1.20;;;;;;;18.29;56.81;100770.59;5038708;28;20048;-79
2021/06/03 02:18:06;;;;;;;1.65;1.20;;;;;;;18.23;55.96;100772.19;5057251;28;20032;-78
2021/06/03 02:20:35;;;;;;;2.55;1.27;;;;;;;18.18;56.02;100775.44;5056793;28;20041;-78
2021/06/03 02:23:01;;;;;;;2.45;1.33;;;;;;;18.07;56.38;100770.66;5056772;28;20514;-78
2021/06/03 02:25:29;;;;;;;1.98;1.20;;;;;;;18.02;56.05;100773.91;5056322;28;20041;-78
2021/06/03 02:27:55;;;;;;;1.65;1.25;;;;;;;17.99;57.07;100765.44;5048809;28;20044;-78
2021/06/03 02:30:21;;;;;;;1.85;1.30;;;;;;;17.95;57.81;100772.22;5055957;28;20681;-78
2021/06/03 02:32:50;;;;;;;2.10;1.30;;;;;;;17.91;56.33;100770.94;5035552;28;20499;-78
2021/06/03 02:35:16;;;;;;;1.95;1.00;;;;;;;17.89;57.90;100763.09;5055834;28;20494;-78
2021/06/03 02:37:43;;;;;;;1.65;1.10;;;;;;;17.92;57.14;100769.91;5037706;28;20041;-78
2021/06/03 02:40:14;;;;;;;1.15;0.82;;;;;;;17.96;56.80;100774.69;5035267;28;20286;-78
2021/06/03 02:42:42;;;;;;;1.05;0.82;;;;;;;17.97;55.83;100770.16;5031576;28;20033;-78
2021/06/03 02:45:10;;;;;;;1.60;1.10;;;;;;;17.90;57.09;100767.44;5056728;28;20029;-78
2021/06/03 02:47:38;;;;;;;1.80;1.20;;;;;;;17.80;57.75;100767.78;5050729;28;20033;-78
2021/06/03 02:50:05;;;;;;;1.67;1.20;;;;;;;17.73;57.22;100768.69;5060276;28;20033;-78
2021/06/03 02:52:30;;;;;;;1.73;1.23;;;;;;;17.67;58.59;100772.97;5043202;28;20457;-78
2021/06/03 02:54:55;;;;;;;2.80;1.70;;;;;;;17.58;58.90;100766.91;5053793;28;20036;-78
2021/06/03 02:57:22;;;;;;;2.33;1.50;;;;;;;17.48;58.75;100771.75;5055158;28;20044;-78
2021/06/03 02:59:47;;;;;;;2.08;1.33;;;;;;;17.41;59.35;100779.72;5054419;28;20040;-77
2021/06/03 03:02:12;;;;;;;2.70;1.40;;;;;;;17.38;60.04;100774.75;5054378;28;20064;-77
2021/06/03 03:04:38;;;;;;;2.35;1.45;;;;;;;17.33;60.54;100773.69;5055329;28;20303;-77
2021/06/03 03:07:03;;;;;;;2.85;1.70;;;;;;;17.27;61.77;100774.44;5054809;28;20033;-77
2021/06/03 03:09:28;;;;;;;1.95;1.40;;;;;;;17.17;62.16;100778.22;5055663;28;20033;-77
2021/06/03 03:11:54;;;;;;;2.38;1.40;;;;;;;17.11;61.15;100780.81;5055168;28;20120;-77
2021/06/03 03:14:19;;;;;;;2.33;1.20;;;;;;;17.16;59.56;100787.28;5053391;28;20036;-77
2021/06/03 03:16:44;;;;;;;2.58;1.50;;;;;;;17.16;61.67;100789.94;5056262;28;20039;-77
2021/06/03 03:19:09;;;;;;;2.05;1.50;;;;;;;17.13;61.28;100789.50;5056345;28;20100;-77
2021/06/03 03:21:35;;;;;;;2.20;1.45;;;;;;;17.15;61.80;100785.59;5055968;28;20405;-77
2021/06/03 03:24:00;;;;;;;1.75;1.30;;;;;;;17.22;61.33;100795.56;5056433;28;20033;-78
2021/06/03 03:26:25;;;;;;;1.73;1.35;;;;;;;17.27;61.91;100795.81;5055515;28;20036;-78
2021/06/03 03:28:51;;;;;;;2.85;1.63;;;;;;;17.31;61.24;100792.56;5054034;28;20045;-77
2021/06/03 03:31:16;;;;;;;2.28;1.50;;;;;;;17.40;60.84;100802.13;5053192;28;20033;-78
2021/06/03 03:33:41;;;;;;;2.38;1.25;;;;;;;17.48;59.85;100803.84;5051410;28;20047;-78
2021/06/03 03:36:07;;;;;;;1.58;1.10;;;;;;;17.58;59.91;100790.97;5053651;28;20056;-80
2021/06/03 03:38:32;;;;;;;2.17;1.10;;;;;;;17.68;60.49;100800.53;5053531;28;20057;-78
2021/06/03 03:40:57;;;;;;;2.80;1.20;;;;;;;17.71;59.49;100797.47;5026762;28;20059;-78
2021/06/03 03:43:23;;;;;;;2.55;1.80;;;;;;;17.75;60.74;100798.75;5041102;28;20032;-78
2021/06/03 03:45:49;;;;;;;1.88;1.40;;;;;;;17.76;62.29;100806.59;5053468;28;20585;-78
2021/06/03 03:48:15;;;;;;;2.25;1.45;;;;;;;17.77;60.49;100807.41;5052367;28;20025;-78
2021/06/03 03:50:40;;;;;;;1.75;1.27;;;;;;;17.82;59.68;100813.03;5052772;28;20091;-78
2021/06/03 03:53:06;;;;;;;2.22;1.40;;;;;;;17.86;59.75;100806.28;5053156;28;20025;-78
2021/06/03 03:55:32;;;;;;;1.50;1.20;;;;;;;17.91;58.22;100806.53;5053457;28;20442;-78
2021/06/03 03:57:57;;;;;;;1.83;1.40;;;;;;;17.93;60.03;100817.88;5052687;28;20029;-77
2021/06/03 04:00:29;;;;;;;1.60;1.30;;;;;;;17.94;60.44;100813.34;5052487;28;20037;-78
2021/06/03 04:02:54;;;;;;;2.00;1.40;;;;;;;17.97;61.28;100820.97;5053700;28;20502;-77
2021/06/03 04:05:20;;;;;;;3.22;1.48;;;;;;;17.95;60.36;100825.72;5053443;28;20048;-77
2021/06/03 04:07:45;;;;;;;2.38;1.45;;;;;;;17.97;59.72;100829.00;5053204;28;20609;-77
2021/06/03 04:10:14;;;;;;;2.13;1.40;;;;;;;18.01;58.58;100817.72;5052475;28;20064;-78
2021/06/03 04:12:39;;;;;;;2.20;1.30;;;;;;;18.08;59.13;100817.78;5052947;28;20048;-78
2021/06/03 04:15:06;;;;;;;1.95;1.15;;;;;;;18.14;59.07;100825.06;5053574;28;20394;-77
2021/06/03 04:17:31;;;;;;;1.98;1.23;;;;;;;18.14;60.10;100825.06;5035567;28;20051;-77
2021/06/03 04:19:56;;;;;;;2.90;1.73;;;;;;;18.19;58.55;100836.00;5052248;28;20025;-80
2021/06/03 04:22:22;;;;;;;3.85;1.73;;;;;;;18.21;59.65;100836.63;5036163;28;20060;-79
2021/06/03 04:24:48;;;;;;;3.55;1.42;;;;;;;18.23;59.50;100833.75;5055898;28;20072;-79
2021/06/03 04:27:14;;;;;;;1.80;1.40;;;;;;;18.27;60.10;100842.22;5055415;28;20056;-79
2021/06/03 04:29:39;;;;;;;2.97;1.60;;;;;;;18.25;61.85;100850.44;5055808;28;20478;-79
2021/06/03 04:32:05;;;;;;;3.53;1.80;;;;;;;18.21;60.66;100843.81;5054862;28;20037;-79
2021/06/03 04:34:31;;;;;;;1.40;1.20;;;;;;;18.24;60.96;100848.81;5044856;28;20525;-79
2021/06/03 04:36:56;;;;;;;1.75;1.33;;;;;;;18.30;59.35;100856.03;5055944;28;20033;-79
2021/06/03 04:39:21;;;;;;;1.70;1.20;;;;;;;18.34;60.99;100862.66;5055715;28;20045;-79
2021/06/03 04:41:47;;;;;;;1.48;1.10;;;;;;;18.37;59.41;100866.81;5056159;28;20037;-79
2021/06/03 04:44:12;;;;;;;1.42;1.00;;;;;;;18.40;59.22;100867.25;5054853;28;20029;-79
2021/06/03 04:46:37;;;;;;;2.75;1.60;;;;;;;18.41;61.05;100868.06;5053672;28;20043;-79
2021/06/03 04:49:03;;;;;;;1.90;1.40;;;;;;;18.44;59.65;100865.81;5053214;28;20055;-79
2021/06/03 04:51:28;;;;;;;2.70;1.50;;;;;;;18.48;60.99;100870.81;5054885;28;20044;-79
2021/06/03 04:53:53;;;;;;;2.60;1.65;;;;;;;18.57;58.99;100866.97;5055418;28;20037;-79
2021/06/03 04:56:19;;;;;;;2.35;1.83;;;;;;;18.55;59.53;100866.31;5054423;28;20048;-79
2021/06/03 04:58:44;;;;;;;2.25;1.55;;;;;;;18.59;59.64;100868.41;5054798;28;20039;-79
2021/06/03 05:01:09;;;;;;;1.52;1.20;;;;;;;18.63;62.93;100879.56;5055472;28;20052;-79
2021/06/03 05:03:35;;;;;;;1.60;1.20;;;;;;;18.74;61.22;100873.66;5056341;28;20490;-79
2021/06/03 05:06:00;;;;;;;2.28;1.20;;;;;;;18.82;61.37;100886.91;5056724;28;20040;-79
2021/06/03 05:08:26;;;;;;;1.75;1.40;;;;;;;18.81;63.58;100879.91;5054992;28;20033;-79
2021/06/03 05:10:51;;;;;;;1.80;1.50;;;;;;;18.87;61.83;100892.50;5055590;28;20033;-79
2021/06/03 05:13:16;;;;;;;1.80;1.30;;;;;;;18.98;60.10;100887.63;5038506;28;20039;-79
2021/06/03 05:15:41;;;;;;;2.17;1.00;;;;;;;19.07;59.74;100891.81;5037970;28;20043;-79
2021/06/03 05:18:07;;;;;;;1.05;0.80;;;;;;;19.18;59.16;100891.22;5037430;28;20029;-79
2021/06/03 05:20:33;;;;;;;1.15;0.88;;;;;;;19.28;61.29;100898.88;5055436;28;20087;-79
2021/06/03 05:22:59;;;;;;;2.00;1.55;;;;;;;19.33;61.30;100896.47;5054820;28;20037;-79
2021/06/03 05:25:28;;;;;;;1.73;1.30;;;;;;;19.40;60.29;100896.47;5054769;28;20112;-79
2021/06/03 05:27:53;;;;;;;1.67;1.00;;;;;;;19.54;59.39;100900.84;5054510;28;20029;-79
2021/06/03 05:30:20;;;;;;;1.35;0.85;;;;;;;19.65;59.36;100902.94;5054617;28;20043;-79
2021/06/03 05:32:46;;;;;;;1.90;1.20;;;;;;;19.68;59.16;100899.88;5055767;28;20044;-79
2021/06/03 05:35:14;;;;;;;1.10;0.80;;;;;;;19.75;59.59;100902.59;5055364;28;20033;-80
2021/06/03 05:37:41;;;;;;;2.50;1.60;;;;;;;19.83;58.83;100909.63;5055485;28;20106;-79
2021/06/03 05:40:09;;;;;;;2.92;2.00;;;;;;;19.80;58.60;100907.34;5054821;28;20033;-79
2021/06/03 05:42:34;;;;;;;2.30;1.45;;;;;;;19.69;58.88;100906.09;5037015;28;20037;-80
2021/06/03 05:45:00;;;;;;;2.35;1.50;;;;;;;19.66;58.77;100909.97;5054941;28;20540;-79
2021/06/03 05:47:25;;;;;;;2.58;1.90;;;;;;;19.76;58.60;100909.63;5054830;28;20033;-79
2021/06/03 05:49:50;;;;;;;2.67;1.65;;;;;;;19.70;61.05;100915.78;5055224;28;20564;-79
2021/06/03 05:52:16;;;;;;;1.92;1.20;;;;;;;19.72;59.24;100919.09;5054186;28;20079;-79
2021/06/03 05:54:41;;;;;;;2.20;1.33;;;;;;;19.77;60.19;100913.94;5036767;28;20033;-79
2021/06/03 05:57:07;;;;;;;1.85;1.10;;;;;;;19.85;59.15;100923.66;5054806;28;20036;-79
2021/06/03 05:59:32;;;;;;;2.22;1.38;;;;;;;19.94;58.55;100920.56;5054228;28;20101;-79
2021/06/03 06:02:04;;;;;;;3.67;1.63;;;;;;;20.11;58.36;100922.88;5055943;28;20029;-79
2021/06/03 06:06:54;;;;;;;2.10;1.60;;;;;;;20.42;58.38;100932.19;5058922;28;20033;-79
2021/06/03 06:09:21;;;;;;;1.63;1.20;;;;;;;20.58;59.32;100939.88;5059475;28;20108;-79
2021/06/03 06:11:46;;;;;;;3.03;1.90;;;;;;;20.88;57.79;100934.03;5059230;28;20048;-79
2021/06/03 06:14:11;;;;;;;4.13;2.30;;;;;;;20.96;56.42;100934.63;5040437;28;20045;-79
2021/06/03 06:16:38;;;;;;;3.95;2.47;;;;;;;21.18;55.66;100940.56;5058614;28;20124;-79
2021/06/03 06:19:08;;;;;;;2.92;2.08;;;;;;;21.28;55.36;100939.31;5057678;28;20491;-80
2021/06/03 06:21:34;;;;;;;3.58;2.20;;;;;;;21.52;56.31;100943.16;5058502;28;20477;-79
2021/06/03 06:24:00;;;;;;;2.38;1.77;;;;;;;21.66;56.07;100952.84;5027180;28;20414;-80
2021/06/03 06:26:26;;;;;;;2.40;1.88;;;;;;;22.47;54.86;100952.13;5046202;28;20055;-79
2021/06/03 06:28:53;;;;;;;2.90;2.35;;;;;;;23.06;52.68;100955.31;5046578;28;20040;-79
2021/06/03 06:31:19;;;;;;;3.03;2.15;;;;;;;22.98;52.69;100952.94;5058061;28;20036;-80
2021/06/03 06:33:46;;;;;;;2.30;1.70;;;;;;;23.27;52.98;100953.25;5052734;28;20033;-80
2021/06/03 06:36:12;;;;;;;3.13;2.00;;;;;;;23.85;52.39;100966.22;5056094;28;20048;-77
2021/06/03 06:38:38;;;;;;;2.65;2.00;;;;;;;24.51;50.43;100958.19;5054885;28;20048;-77
2021/06/03 06:41:04;;;;;;;2.85;1.88;;;;;;;25.15;50.15;100955.59;5046176;28;20033;-77
2021/06/03 06:43:30;;;;;;;3.47;2.00;;;;;;;25.70;47.20;100954.28;5042986;28;20040;-77
2021/06/03 06:45:56;;;;;;;3.58;2.00;;;;;;;26.13;46.38;100969.19;5046717;28;20120;-77
2021/06/03 06:48:22;;;;;;;2.25;1.50;;;;;;;26.53;46.41;100966.31;5036088;28;20044;-77
2021/06/03 06:50:49;;;;;;;2.70;1.70;;;;;;;26.98;45.83;100959.13;5054712;28;20048;-77
2021/06/03 06:53:14;;;;;;;2.42;1.60;;;;;;;27.44;46.01;100963.28;5054709;28;20128;-77
2021/06/03 06:55:40;;;;;;;4.22;2.00;;;;;;;28.01;41.88;100974.78;5054533;28;20342;-77
2021/06/03 06:58:06;;;;;;;3.10;2.05;;;;;;;27.68;41.36;100968.44;5036205;28;20071;-77
2021/06/03 07:00:35;;;;;;;2.35;1.65;;;;;;;27.05;43.14;100973.34;5054359;28;20453;-77
2021/06/03 07:03:00;;;;;;;3.28;1.85;;;;;;;26.58;43.48;100966.44;5053210;28;20043;-77
2021/06/03 07:05:27;;;;;;;2.75;2.00;;;;;;;26.10;44.59;100970.50;5054807;28;20036;-76
2021/06/03 07:07:54;;;;;;;3.10;1.60;;;;;;;25.78;45.25;100975.56;5036086;28;20037;-77
2021/06/03 07:10:20;;;;;;;1.80;1.40;;;;;;;25.61;46.82;100968.19;5052165;28;20441;-78
2021/06/03 07:12:46;;;;;;;2.60;2.05;;;;;;;25.53;46.19;100971.28;5046441;28;20395;-79
2021/06/03 07:15:14;;;;;;;3.60;1.70;;;;;;;25.33;46.63;100965.47;5035646;28;20033;-78
2021/06/03 07:17:40;;;;;;;2.65;1.50;;;;;;;25.25;48.66;100969.38;5054145;28;20029;-78
2021/06/03 07:20:10;;;;;;;2.65;1.90;;;;;;;25.12;47.38;100966.88;5035530;28;20033;-78
2021/06/03 07:23:00;;;;;;;2.58;1.77;;;;;;;24.76;50.05;100974.19;5053623;28;20033;-77
2021/06/03 07:25:26;;;;;;;4.15;2.05;;;;;;;25.15;48.28;100979.94;5054452;28;20036;-78
2021/06/03 07:27:52;;;;;;;2.58;1.35;;;;;;;25.45;48.35;100971.66;5056530;28;20468;-78
2021/06/03 07:30:21;;;;;;;2.00;1.50;;;;;;;25.63;46.75;100970.66;5056808;28;20029;-78
2021/06/03 07:32:48;;;;;;;3.05;2.17;;;;;;;25.55;46.54;100974.59;5038134;28;20049;-78
2021/06/03 07:35:14;;;;;;;3.15;2.00;;;;;;;25.87;46.03;100974.13;5055262;28;20122;-77
2021/06/03 07:37:42;;;;;;;3.17;1.85;;;;;;;26.14;45.54;100974.34;5037500;28;20029;-77
2021/06/03 07:40:10;;;;;;;2.15;1.70;;;;;;;26.43;45.32;100975.13;5054487;28;20520;-78
2021/06/03 07:42:36;;;;;;;2.63;1.60;;;;;;;26.88;43.11;100968.75;5051841;28;20124;-78
2021/06/03 07:45:06;;;;;;;4.30;1.95;;;;;;;27.52;42.75;100970.97;5037953;28;20041;-78
2021/06/03 07:47:31;;;;;;;2.13;1.35;;;;;;;28.00;41.19;100971.25;5050166;28;20037;-78
2021/06/03 07:49:56;;;;;;;3.33;1.88;;;;;;;28.27;40.01;100975.81;5060352;28;20033;-78
2021/06/03 07:52:21;;;;;;;2.60;1.33;;;;;;;28.46;39.39;100974.41;5056945;28;20043;-79
2021/06/03 07:54:47;;;;;;;2.42;1.33;;;;;;;29.18;40.63;100969.44;5056680;28;20308;-78
2021/06/03 07:57:12;;;;;;;2.97;1.50;;;;;;;29.59;40.40;100969.56;5056985;28;20033;-78
2021/06/03 07:59:37;;;;;;;2.67;1.50;;;;;;;29.52;37.42;100974.47;5043023;28;20041;-79
2021/06/03 08:02:03;;;;;;;2.58;1.45;;;;;;;29.37;37.05;100965.16;5055050;28;20033;-78
2021/06/03 08:04:28;;;;;;;2.40;1.40;;;;;;;29.54;36.61;100967.66;5056779;28;20566;-78
2021/06/03 08:06:54;;;;;;;2.73;1.60;;;;;;;30.03;35.86;100972.69;5056002;28;20037;-79
2021/06/03 08:09:19;;;;;;;2.80;1.38;;;;;;;29.97;37.11;100965.59;5056901;28;20288;-79
2021/06/03 08:11:45;;;;;;;1.83;1.25;;;;;;;30.37;35.83;100968.66;5056017;28;20035;-78
2021/06/03 08:14:12;;;;;;;2.40;1.30;;;;;;;30.63;36.96;100970.25;5038288;28;20029;-78
2021/06/03 08:16:37;;;;;;;1.95;1.10;;;;;;;31.27;35.89;100976.94;5054015;28;20529;-78
2021/06/03 08:19:03;;;;;;;1.60;1.30;;;;;;;31.80;34.34;100973.69;5055120;28;20032;-78
2021/06/03 08:21:28;;;;;;;1.95;1.30;;;;;;;32.11;32.27;100973.50;5054193;28;20029;-79
2021/06/03 08:23:55;;;;;;;1.60;1.02;;;;;;;32.42;33.16;100974.06;5037327;28;20037;-79
2021/06/03 08:26:20;;;;;;;2.67;1.40;;;;;;;32.60;31.54;100972.53;5036706;28;20506;-79
2021/06/03 08:28:46;;;;;;;2.15;1.30;;;;;;;32.03;33.24;100963.16;5055067;28;20051;-78
2021/06/03 08:31:11;;;;;;;1.80;1.30;;;;;;;32.45;32.12;100968.00;5055221;28;20051;-78
2021/06/03 08:33:36;;;;;;;2.97;1.20;;;;;;;32.68;32.37;100976.56;5054259;28;20048;-79
2021/06/03 08:36:02;;;;;;;1.50;1.00;;;;;;;32.91;31.61;100969.47;5043658;28;20665;-78
2021/06/03 08:38:27;;;;;;;2.28;1.20;;;;;;;33.44;32.20;100972.13;5055819;28;20040;-78
2021/06/03 08:40:57;;;;;;;2.45;1.25;;;;;;;33.69;30.07;100971.00;5054263;28;20040;-79
2021/06/03 08:43:26;;;;;;;2.38;1.23;;;;;;;33.96;31.16;100959.34;5057572;28;20402;-79
2021/06/03 08:45:52;;;;;;;3.15;1.70;;;;;;;33.46;30.74;100969.09;5057030;28;20078;-79
2021/06/03 08:48:18;;;;;;;1.90;1.23;;;;;;;33.18;31.92;100971.66;5038445;28;20268;-78
2021/06/03 08:50:46;;;;;;;1.67;1.08;;;;;;;32.98;31.05;100970.75;5055457;28;20039;-79
2021/06/03 08:53:13;;;;;;;2.72;1.40;;;;;;;32.79;31.76;100956.19;5039065;28;20618;-79
2021/06/03 08:58:25;;;;;;;3.38;1.40;;;;;;;32.90;31.86;100962.38;5054681;28;20420;-79
2021/06/03 09:00:51;;;;;;;2.28;1.55;;;;;;;33.33;32.00;100960.50;5055408;28;20063;-79
2021/06/03 09:03:16;;;;;;;2.38;1.50;;;;;;;33.41;30.98;100964.50;5041872;28;20030;-79
2021/06/03 09:05:44;;;;;;;2.83;1.30;;;;;;;32.85;33.53;100963.25;5055258;28;20094;-79
2021/06/03 09:08:29;;;;;;;2.30;1.50;;;;;;;33.40;32.47;100963.69;5054956;28;20116;-79
2021/06/03 09:11:00;;;;;;;2.08;1.38;;;;;;;32.33;33.57;100956.63;5053950;28;20045;-79
2021/06/03 09:13:35;;;;;;;1.92;1.20;;;;;;;32.54;33.62;100957.28;5054984;28;20035;-79
2021/06/03 09:16:01;;;;;;;2.10;1.40;;;;;;;31.60;34.91;100954.66;5054288;28;20037;-79
2021/06/03 09:18:36;;;;;;;2.78;1.45;;;;;;;31.44;34.44;100946.56;5036687;28;20037;-79
2021/06/03 09:21:09;;;;;;;5.20;4.80;;;;;;;30.97;36.69;100947.00;5037384;28;20041;-79
2021/06/03 09:23:34;;;;;;;2.25;1.30;;;;;;;31.58;33.41;100952.19;5055748;28;20405;-79
2021/06/03 09:26:06;;;;;;;1.90;1.38;;;;;;;31.38;33.56;100957.75;5054836;28;20064;-79
2021/06/03 09:28:35;;;;;;;3.90;1.30;;;;;;;31.13;34.59;100958.66;5053389;28;20033;-79
2021/06/03 09:31:07;;;;;;;2.10;1.40;;;;;;;31.17;34.77;100954.28;5054358;28;20037;-78
2021/06/03 09:33:42;;;;;;;1.90;1.17;;;;;;;31.26;35.99;100958.09;5054381;28;20041;-79
2021/06/03 09:36:10;;;;;;;2.85;1.60;;;;;;;31.23;33.61;100956.72;5055284;28;20435;-79
2021/06/03 09:38:51;;;;;;;2.28;1.42;;;;;;;30.97;35.32;100947.81;5056995;28;20037;-79
2021/06/03 09:41:18;;;;;;;3.67;1.30;;;;;;;31.22;34.79;100948.81;5059965;28;20108;-80
2021/06/03 09:43:45;;;;;;;2.17;1.38;;;;;;;31.54;34.38;100962.09;5061562;28;20036;-79
2021/06/03 09:46:14;;;;;;;1.95;1.10;;;;;;;31.02;34.96;100947.78;5060798;28;20037;-79
2021/06/03 09:48:45;;;;;;;1.70;1.20;;;;;;;30.57;36.19;100949.50;5047721;28;20033;-78
2021/06/03 09:51:31;;;;;;;2.30;1.30;;;;;;;30.49;34.65;100950.09;5060526;28;20029;-78
2021/06/03 09:54:14;;;;;;;1.92;1.27;;;;;;;30.82;33.75;100945.91;5041448;28;20029;-78
2021/06/03 09:56:42;;;;;;;2.42;1.08;;;;;;;30.77;34.06;100945.09;5040428;28;20033;-78
2021/06/03 09:59:15;;;;;;;2.42;1.20;;;;;;;30.54;33.89;100952.81;5059854;28;20029;-78
2021/06/03 10:01:56;;;;;;;2.85;1.45;;;;;;;30.66;35.21;100945.13;5042368;28;20063;-78
2021/06/03 10:04:43;;;;;;;2.40;1.50;;;;;;;30.39;35.20;100944.63;5029162;28;20053;-79
2021/06/03 10:07:08;;;;;;;2.17;1.45;;;;;;;30.35;35.67;100949.81;5056757;28;20044;-78
2021/06/03 10:09:35;;;;;;;2.60;1.45;;;;;;;29.88;36.78;100950.03;5040692;28;20033;-78
2021/06/03 10:12:00;;;;;;;2.40;1.60;;;;;;;30.14;35.35;100948.97;5044621;28;20056;-79
2021/06/03 10:14:27;;;;;;;2.27;1.53;;;;;;;29.93;36.79;100944.59;5025726;28;20033;-78
2021/06/03 10:16:52;;;;;;;2.60;1.63;;;;;;;29.47;36.67;100947.19;5056001;28;20347;-78
2021/06/03 10:19:24;;;;;;;2.65;1.67;;;;;;;29.83;36.00;100940.75;5059657;28;20152;-79
2021/06/03 10:22:25;;;;;;;1.60;1.30;;;;;;;29.76;36.25;100942.13;5059500;28;20116;-78
2021/06/03 10:25:03;;;;;;;3.45;1.80;;;;;;;29.76;36.84;100937.47;5058877;28;20116;-79
2021/06/03 10:27:33;;;;;;;2.70;2.08;;;;;;;29.96;36.87;100933.97;5058826;28;20037;-78
2021/06/03 10:30:00;;;;;;;;;;;;;;;29.40;37.05;100937.34;5059950;28;20033;-79
2021/06/03 10:32:29;;;;;;;2.80;1.52;;;;;;;29.81;37.18;100940.22;5055599;28;19944;-78
2021/06/03 10:34:55;;;;;;;3.65;1.40;;;;;;;29.81;37.85;100940.22;5038767;28;20030;-78
2021/06/03 10:37:23;;;;;;;2.65;1.70;;;;;;;29.76;36.61;100932.03;5036849;28;20026;-78
2021/06/03 10:39:49;;;;;;;2.15;1.42;;;;;;;29.73;36.52;100926.31;5059223;28;20445;-79
2021/06/03 10:42:16;;;;;;;2.25;1.42;;;;;;;29.64;36.91;100926.78;5052861;28;20044;-78
2021/06/03 10:44:43;;;;;;;2.17;1.50;;;;;;;29.90;37.32;100935.03;5040512;28;20120;-78
2021/06/03 10:47:11;;;;;;;2.75;1.70;;;;;;;30.06;35.45;100919.53;5039353;28;20040;-78
2021/06/03 10:49:37;;;;;;;3.92;1.80;;;;;;;29.66;37.42;100923.00;5057223;28;20041;-78
2021/06/03 10:52:07;;;;;;;2.53;1.50;;;;;;;29.83;36.73;100918.94;5056435;28;20041;-78
2021/06/03 10:54:44;;;;;;;2.03;1.58;;;;;;;30.10;35.74;100926.03;5057364;28;20055;-79
2021/06/03 10:57:12;;;;;;;2.00;1.58;;;;;;;30.10;35.73;100920.59;5042559;28;20040;-78
2021/06/03 10:59:39;;;;;;;3.25;1.80;;;;;;;30.05;38.28;100912.41;5046921;28;20045;-78
2021/06/03 11:02:07;;;;;;;2.75;1.80;;;;;;;30.19;35.86;100926.31;5037014;28;20619;-78
2021/06/03 11:04:34;;;;;;;3.35;1.67;;;;;;;30.13;36.76;100916.50;5053203;28;20041;-78
2021/06/03 11:07:00;;;;;;;2.88;1.88;;;;;;;30.15;36.08;100917.88;5055655;28;20041;-79
2021/06/03 11:09:29;;;;;;;3.28;2.08;;;;;;;30.22;36.99;100912.13;5057560;28;20029;-79
2021/06/03 11:12:09;;;;;;;2.67;1.90;;;;;;;29.72;36.27;100903.66;5056244;28;20029;-80
2021/06/03 11:15:02;;;;;;;3.08;2.10;;;;;;;29.71;36.91;100903.94;5054124;28;20083;-79
2021/06/03 11:17:49;;;;;;;3.83;1.70;;;;;;;29.37;38.26;100910.66;5050375;28;20030;-79
2021/06/03 11:20:15;;;;;;;2.92;1.85;;;;;;;29.49;37.81;100904.16;5051022;28;20083;-79
2021/06/03 11:22:40;;;;;;;3.83;1.88;;;;;;;29.60;37.62;100908.53;5053926;28;20044;-80
2021/06/03 11:25:06;;;;;;;2.95;1.85;;;;;;;29.58;38.41;100897.91;5035321;28;20029;-80
2021/06/03 11:27:39;;;;;;;2.80;1.90;;;;;;;29.89;36.38;100911.59;5057128;28;20033;-80
2021/06/03 11:30:10;;;;;;;2.47;1.63;;;;;;;29.71;37.03;100898.50;5056643;28;20063;-80
2021/06/03 11:32:39;;;;;;;;;;;;;;;29.79;37.00;100892.50;5038305;28;20041;-80